createdAt,value
2022-12-20T00:02:15.525Z,3.41
2022-12-20T00:04:47.339Z,3.43
2022-12-20T00:07:19.181Z,3.44
2022-12-20T00:09:50.682Z,3.46
2022-12-20T00:12:22.510Z,3.47
2022-12-20T00:14:54.424Z,3.51
2022-12-20T00:17:26.000Z,3.48
2022-12-20T00:19:57.848Z,3.49
2022-12-20T00:22:29.379Z,3.53
2022-12-20T00:25:01.202Z,3.52
2022-12-20T00:27:32.709Z,3.53
2022-12-20T00:30:04.573Z,3.56
2022-12-20T00:32:36.080Z,3.56
2022-12-20T00:35:07.957Z,3.57
2022-12-20T00:37:39.548Z,3.58
2022-12-20T00:40:11.465Z,3.59
2022-12-20T00:42:42.977Z,3.59
2022-12-20T00:45:14.792Z,3.57
2022-12-20T00:47:46.351Z,3.59
2022-12-20T00:50:18.228Z,3.56
2022-12-20T00:52:49.717Z,3.53
2022-12-20T00:55:21.571Z,3.53
2022-12-20T00:57:53.081Z,3.50
2022-12-20T01:00:24.898Z,3.53
2022-12-20T01:02:56.534Z,3.51
2022-12-20T01:05:28.492Z,3.54
2022-12-20T01:08:00.157Z,3.53
2022-12-20T01:10:31.954Z,3.55
2022-12-20T01:13:03.450Z,3.54
2022-12-20T01:15:35.287Z,3.58
2022-12-20T01:18:06.811Z,3.57
2022-12-20T01:20:38.699Z,3.56
2022-12-20T01:23:10.280Z,3.56
2022-12-20T01:25:42.197Z,3.58
2022-12-20T01:28:13.762Z,3.61
2022-12-20T01:30:45.652Z,3.62
2022-12-20T01:33:17.166Z,3.61
2022-12-20T01:35:49.029Z,3.61
2022-12-20T01:38:20.549Z,3.62
2022-12-20T01:40:52.483Z,3.64
2022-12-20T01:43:23.983Z,3.68
2022-12-20T01:45:55.937Z,3.66
2022-12-20T01:48:27.547Z,3.62
2022-12-20T01:50:59.389Z,3.63
2022-12-20T01:53:30.902Z,3.62
2022-12-20T01:56:02.714Z,3.65
2022-12-20T01:58:34.220Z,3.64
2022-12-20T02:01:06.138Z,3.66
2022-12-20T02:03:37.723Z,3.68
2022-12-20T02:06:09.627Z,3.70
2022-12-20T02:08:41.145Z,3.71
2022-12-20T02:11:12.982Z,3.72
2022-12-20T02:13:44.488Z,3.76
2022-12-20T02:16:16.440Z,3.84
2022-12-20T02:18:47.998Z,3.86
2022-12-20T02:21:20.053Z,3.85
2022-12-20T02:23:51.574Z,3.90
2022-12-20T02:26:23.398Z,3.90
2022-12-20T02:28:57.383Z,3.93
2022-12-20T02:31:29.289Z,3.93
2022-12-20T02:34:00.935Z,3.93
2022-12-20T02:36:32.751Z,3.90
2022-12-20T02:39:04.274Z,3.94
2022-12-20T02:41:36.075Z,3.93
2022-12-20T02:44:26.123Z,3.98
2022-12-20T02:46:57.945Z,3.54
2022-12-20T02:49:29.461Z,4.02
2022-12-20T02:52:01.301Z,4.04
2022-12-20T02:54:32.796Z,4.08
2022-12-20T02:57:04.527Z,4.07
2022-12-20T02:59:36.042Z,4.11
2022-12-20T03:02:07.991Z,4.13
2022-12-20T03:04:39.667Z,4.17
2022-12-20T03:07:11.489Z,4.15
2022-12-20T03:09:43.005Z,4.21
2022-12-20T03:12:16.377Z,4.20
2022-12-20T03:14:47.888Z,4.18
2022-12-20T03:17:19.757Z,4.21
2022-12-20T03:19:51.368Z,4.25
2022-12-20T03:22:23.833Z,4.29
2022-12-20T03:24:55.368Z,3.15
2022-12-20T03:27:28.500Z,4.26
2022-12-20T03:30:00.103Z,4.25
2022-12-20T03:32:31.936Z,4.28
2022-12-20T03:35:03.491Z,4.27
2022-12-20T03:37:35.348Z,4.30
2022-12-20T03:40:06.865Z,4.32
2022-12-20T03:42:38.826Z,4.32
2022-12-20T03:45:10.608Z,2.80
2022-12-20T03:47:42.448Z,4.36
2022-12-20T03:50:14.005Z,4.36
2022-12-20T03:52:45.868Z,4.37
2022-12-20T03:55:17.412Z,4.39
2022-12-20T03:57:49.257Z,2.86
2022-12-20T04:00:20.759Z,4.42
2022-12-20T04:02:52.654Z,4.39
2022-12-20T04:05:24.409Z,4.37
2022-12-20T04:07:56.300Z,4.38
2022-12-20T04:10:27.849Z,4.39
2022-12-20T04:12:59.368Z,4.40
2022-12-20T04:15:30.942Z,4.38
2022-12-20T04:18:02.965Z,4.37
2022-12-20T04:20:34.850Z,4.39
2022-12-20T04:23:06.364Z,4.42
2022-12-20T04:25:38.264Z,4.40
2022-12-20T04:28:09.781Z,4.37
2022-12-20T04:30:41.372Z,4.32
2022-12-20T04:33:12.886Z,4.36
2022-12-20T04:35:45.042Z,4.29
2022-12-20T04:38:16.583Z,4.28
2022-12-20T04:40:48.464Z,4.24
2022-12-20T04:43:20.234Z,4.22
2022-12-20T04:45:52.958Z,4.15
2022-12-20T04:51:18.924Z,4.11
2022-12-20T04:53:50.435Z,4.12
2022-12-20T04:56:22.460Z,4.10
2022-12-20T04:58:53.975Z,4.12
2022-12-20T05:01:25.924Z,4.12
2022-12-20T05:03:57.745Z,4.14
2022-12-20T05:06:29.842Z,4.13
2022-12-20T05:09:01.466Z,4.14
2022-12-20T05:11:33.409Z,4.13
2022-12-20T05:14:04.923Z,4.11
2022-12-20T05:16:37.883Z,4.11
2022-12-20T05:19:09.448Z,4.11
2022-12-20T05:21:59.764Z,4.13
2022-12-20T05:24:49.902Z,4.16
2022-12-20T05:27:21.468Z,4.18
2022-12-20T05:29:53.038Z,4.19
2022-12-20T05:32:24.585Z,4.18
2022-12-20T05:34:56.311Z,4.18
2022-12-20T05:37:27.837Z,4.17
2022-12-20T05:39:59.352Z,4.17
2022-12-20T05:42:30.867Z,4.20
2022-12-20T05:45:03.703Z,4.25
2022-12-20T05:47:35.320Z,4.27
2022-12-20T05:50:09.257Z,4.31
2022-12-20T05:52:42.603Z,4.33
2022-12-20T05:55:14.497Z,4.32
2022-12-20T05:57:46.018Z,4.35
2022-12-20T06:00:17.943Z,4.38
2022-12-20T06:02:49.631Z,4.39
2022-12-20T06:05:21.743Z,4.43
2022-12-20T06:07:53.301Z,4.47
2022-12-20T06:10:25.216Z,4.51
2022-12-20T06:12:56.774Z,4.53
2022-12-20T06:15:28.630Z,4.56
2022-12-20T06:18:00.162Z,4.56
2022-12-20T06:20:31.944Z,4.59
2022-12-20T06:23:03.515Z,4.62
2022-12-20T06:25:35.285Z,4.63
2022-12-20T06:28:07.652Z,4.61
2022-12-20T06:30:39.210Z,4.66
2022-12-20T06:33:10.757Z,4.66
2022-12-20T06:35:42.596Z,4.65
2022-12-20T06:38:14.119Z,4.66
2022-12-20T06:40:45.710Z,4.67
2022-12-20T06:43:17.244Z,2.99
2022-12-20T06:45:49.228Z,4.67
2022-12-20T06:48:21.349Z,4.64
2022-12-20T06:50:56.162Z,4.64
2022-12-20T06:53:28.013Z,4.64
2022-12-20T06:55:59.874Z,4.66
2022-12-20T06:58:31.482Z,4.67
2022-12-20T07:01:03.389Z,4.63
2022-12-20T07:03:34.978Z,4.64
2022-12-20T07:06:06.624Z,4.66
2022-12-20T07:08:38.157Z,4.71
2022-12-20T07:11:09.728Z,4.72
2022-12-20T07:13:41.548Z,4.79
2022-12-20T07:16:13.245Z,4.80
2022-12-20T07:18:45.686Z,4.81
2022-12-20T07:21:17.548Z,4.85
2022-12-20T07:23:49.459Z,4.85
2022-12-20T07:26:21.057Z,4.87
2022-12-20T07:28:52.956Z,4.91
2022-12-20T07:31:24.530Z,4.92
2022-12-20T07:33:56.614Z,4.89
2022-12-20T07:36:28.214Z,4.92
2022-12-20T07:39:00.097Z,4.95
2022-12-20T07:41:31.641Z,4.98
2022-12-20T07:44:03.505Z,4.99
2022-12-20T07:46:35.026Z,5.00
2022-12-20T07:49:07.174Z,4.99
2022-12-20T07:51:38.678Z,5.05
2022-12-20T07:54:10.578Z,5.06
2022-12-20T07:56:42.278Z,5.07
2022-12-20T07:59:14.224Z,5.07
2022-12-20T08:01:46.880Z,5.10
2022-12-20T08:04:18.895Z,5.10
2022-12-20T08:06:50.388Z,5.09
2022-12-20T08:09:21.933Z,5.11
2022-12-20T08:11:53.485Z,5.15
2022-12-20T08:14:25.003Z,5.20
2022-12-20T08:16:56.560Z,5.22
2022-12-20T08:19:32.232Z,5.19
2022-12-20T08:22:04.872Z,5.22
2022-12-20T08:24:36.489Z,5.25
2022-12-20T08:27:08.317Z,5.29
2022-12-20T08:29:39.997Z,5.29
2022-12-20T08:32:13.513Z,5.28
2022-12-20T08:34:45.142Z,5.33
2022-12-20T08:37:17.019Z,5.33
2022-12-20T08:39:48.528Z,5.32
2022-12-20T08:42:20.401Z,5.36
2022-12-20T08:44:51.918Z,5.44
2022-12-20T08:47:23.653Z,5.37
2022-12-20T08:49:55.172Z,5.38
2022-12-20T08:52:27.081Z,5.39
2022-12-20T08:55:01.449Z,5.38
2022-12-20T08:57:33.947Z,5.42
2022-12-20T09:00:05.537Z,5.50
2022-12-20T09:02:38.838Z,5.44
2022-12-20T09:05:10.544Z,5.50
2022-12-20T09:07:42.083Z,5.58
2022-12-20T09:10:14.751Z,5.72
2022-12-20T09:12:46.305Z,5.71
2022-12-20T09:15:17.816Z,5.79
2022-12-20T09:17:49.515Z,6.02
2022-12-20T09:20:21.040Z,5.99
2022-12-20T09:22:52.962Z,6.03
2022-12-20T09:25:24.494Z,6.02
2022-12-20T09:27:56.872Z,6.09
2022-12-20T09:30:28.423Z,6.33
2022-12-20T09:33:10.115Z,6.37
2022-12-20T09:35:41.954Z,6.45
2022-12-20T09:38:13.688Z,6.59
2022-12-20T09:40:45.265Z,6.64
2022-12-20T09:43:17.076Z,6.63
2022-12-20T09:45:48.609Z,6.87
2022-12-20T09:48:20.552Z,7.01
2022-12-20T09:50:52.111Z,6.95
2022-12-20T09:53:23.817Z,6.99
2022-12-20T09:55:55.507Z,7.15
2022-12-20T09:58:27.419Z,7.28
2022-12-20T10:00:59.039Z,7.49
2022-12-20T10:03:30.762Z,7.10
2022-12-20T10:06:02.586Z,7.32
2022-12-20T10:08:34.415Z,7.10
2022-12-20T10:11:06.060Z,7.22
2022-12-20T10:13:37.970Z,7.17
2022-12-20T10:16:09.695Z,7.27
2022-12-20T10:18:41.781Z,7.15
2022-12-20T10:21:13.527Z,7.22
2022-12-20T10:23:45.466Z,7.12
2022-12-20T10:26:17.023Z,7.11
2022-12-20T10:28:53.856Z,7.16
2022-12-20T10:31:26.145Z,7.38
2022-12-20T10:33:57.833Z,7.41
2022-12-20T10:36:29.503Z,7.56
2022-12-20T10:39:01.211Z,7.68
2022-12-20T10:41:32.786Z,7.69
2022-12-20T10:44:04.336Z,7.96
2022-12-20T10:46:36.038Z,7.91
2022-12-20T10:49:07.931Z,7.76
2022-12-20T10:51:39.465Z,7.83
2022-12-20T10:54:11.011Z,7.85
2022-12-20T10:56:42.576Z,7.81
2022-12-20T10:59:14.135Z,7.83
2022-12-20T11:01:46.159Z,7.77
2022-12-20T11:04:17.879Z,7.76
2022-12-20T11:06:49.495Z,7.66
2022-12-20T11:09:21.296Z,7.74
2022-12-20T11:11:52.864Z,7.70
2022-12-20T11:14:24.426Z,7.60
2022-12-20T11:16:56.778Z,7.53
2022-12-20T11:19:28.373Z,7.67
2022-12-20T11:21:59.924Z,7.64
2022-12-20T11:24:31.741Z,7.67
2022-12-20T11:27:03.270Z,7.71
2022-12-20T11:29:34.949Z,7.73
2022-12-20T11:32:06.474Z,7.83
2022-12-20T11:34:38.117Z,7.89
2022-12-20T11:37:10.686Z,7.64
2022-12-20T11:39:42.253Z,7.88
2022-12-20T11:42:14.653Z,8.06
2022-12-20T11:44:53.875Z,8.04
2022-12-20T11:47:29.451Z,7.84
2022-12-20T11:50:01.036Z,7.91
2022-12-20T11:52:33.163Z,7.82
2022-12-20T11:55:04.871Z,7.67
2022-12-20T11:58:01.748Z,7.78
2022-12-20T12:00:28.298Z,7.74
2022-12-20T12:03:01.032Z,7.78
2022-12-20T12:05:33.087Z,7.91
2022-12-20T12:08:04.676Z,7.93
2022-12-20T12:10:36.589Z,7.93
2022-12-20T12:13:08.201Z,7.91
2022-12-20T12:15:40.191Z,8.03
2022-12-20T12:18:11.713Z,8.13
2022-12-20T12:20:44.502Z,7.94
2022-12-20T12:23:16.055Z,7.86
2022-12-20T12:25:47.932Z,7.84
2022-12-20T12:28:19.482Z,7.76
2022-12-20T12:30:51.213Z,7.84
2022-12-20T12:33:25.754Z,7.83
2022-12-20T12:35:57.837Z,7.88
2022-12-20T12:38:29.370Z,7.88
2022-12-20T12:41:01.311Z,7.92
2022-12-20T12:43:32.833Z,7.80
2022-12-20T12:46:08.370Z,7.98
2022-12-20T12:48:42.526Z,7.99
2022-12-20T12:51:14.439Z,7.85
2022-12-20T12:53:45.952Z,7.97
2022-12-20T12:56:42.119Z,7.95
2022-12-20T12:59:10.002Z,7.90
2022-12-20T13:01:41.651Z,7.84
2022-12-20T13:04:13.528Z,7.80
2022-12-20T13:06:45.049Z,7.85
2022-12-20T13:09:16.947Z,7.20
2022-12-20T13:11:52.341Z,7.71
2022-12-20T13:14:29.398Z,7.68
2022-12-20T13:17:19.527Z,7.57
2022-12-20T13:19:52.451Z,7.63
2022-12-20T13:22:24.043Z,7.45
2022-12-20T13:24:58.676Z,7.39
2022-12-20T13:27:30.286Z,7.38
2022-12-20T13:30:02.692Z,7.39
2022-12-20T13:32:34.318Z,7.47
2022-12-20T13:35:06.179Z,7.39
2022-12-20T13:37:37.820Z,7.37
2022-12-20T13:40:09.630Z,7.37
2022-12-20T13:42:41.152Z,7.25
2022-12-20T13:45:12.982Z,7.22
2022-12-20T13:47:44.544Z,7.24
2022-12-20T13:50:16.448Z,7.18
2022-12-20T13:52:47.983Z,7.17
2022-12-20T13:55:19.716Z,7.15
2022-12-20T13:57:51.213Z,7.09
2022-12-20T14:03:04.974Z,7.02
2022-12-20T14:05:36.610Z,7.03
2022-12-20T14:08:08.215Z,6.96
2022-12-20T14:10:40.076Z,6.94
2022-12-20T14:13:11.591Z,6.90
2022-12-20T14:15:43.443Z,6.94
2022-12-20T14:18:14.957Z,6.91
2022-12-20T14:20:46.807Z,6.85
2022-12-20T14:23:18.405Z,6.84
2022-12-20T14:25:49.961Z,6.84
2022-12-20T14:28:27.018Z,6.79
2022-12-20T14:30:59.531Z,6.78
2022-12-20T14:33:31.143Z,6.75
2022-12-20T14:36:03.033Z,6.74
2022-12-20T14:38:34.549Z,6.72
2022-12-20T14:41:06.086Z,6.73
2022-12-20T14:43:37.894Z,6.67
2022-12-20T14:46:09.594Z,6.69
2022-12-20T14:48:41.208Z,6.63
2022-12-20T14:51:12.864Z,6.59
2022-12-20T14:53:44.355Z,6.61
2022-12-20T14:56:15.940Z,6.61
2022-12-20T14:58:47.470Z,6.58
2022-12-20T15:01:19.505Z,6.56
2022-12-20T15:03:51.541Z,6.55
2022-12-20T15:06:23.528Z,6.52
2022-12-20T15:08:55.080Z,6.52
2022-12-20T15:11:26.608Z,6.49
2022-12-20T15:13:59.042Z,6.47
2022-12-20T15:16:30.987Z,6.46
2022-12-20T15:19:02.657Z,6.42
2022-12-20T15:21:34.222Z,6.38
2022-12-20T15:24:08.094Z,6.31
2022-12-20T15:26:39.687Z,6.34
2022-12-20T15:29:11.284Z,6.30
2022-12-20T15:31:43.101Z,6.25
2022-12-20T15:34:14.671Z,6.19
2022-12-20T15:36:46.810Z,6.20
2022-12-20T15:39:18.407Z,6.17
2022-12-20T15:41:50.461Z,6.18
2022-12-20T15:44:22.034Z,6.18
2022-12-20T15:46:53.824Z,6.13
2022-12-20T15:49:25.411Z,6.18
2022-12-20T15:51:57.440Z,6.11
2022-12-20T15:54:29.179Z,6.14
2022-12-20T15:57:03.304Z,6.19
2022-12-20T16:02:27.259Z,6.11
2022-12-20T16:04:59.253Z,6.10
2022-12-20T16:07:31.375Z,6.12
2022-12-20T16:10:03.618Z,6.08
2022-12-20T16:12:35.246Z,6.09
2022-12-20T16:15:08.179Z,6.06
2022-12-20T16:17:40.161Z,6.05
2022-12-20T16:20:11.665Z,6.01
2022-12-20T16:22:43.559Z,6.01
2022-12-20T16:25:19.946Z,6.00
2022-12-20T16:27:51.900Z,6.04
2022-12-20T16:30:23.822Z,5.99
2022-12-20T16:32:55.420Z,5.97
2022-12-20T16:35:27.802Z,5.98
2022-12-20T16:37:59.342Z,5.98
2022-12-20T16:40:31.262Z,5.96
2022-12-20T16:43:02.930Z,5.93
2022-12-20T16:45:35.155Z,5.92
2022-12-20T16:48:06.706Z,5.88
2022-12-20T16:50:43.602Z,5.89
2022-12-20T16:53:15.637Z,5.90
2022-12-20T16:55:47.533Z,5.90
2022-12-20T16:58:19.047Z,5.87
2022-12-20T17:00:51.525Z,5.88
2022-12-20T17:03:23.355Z,5.93
2022-12-20T17:05:57.625Z,5.85
2022-12-20T17:11:18.558Z,5.97
2022-12-20T17:13:50.101Z,5.93
2022-12-20T17:16:21.731Z,5.89
2022-12-20T17:18:53.284Z,5.96
2022-12-20T17:21:26.703Z,5.89
2022-12-20T17:23:58.234Z,5.93
2022-12-20T17:26:30.093Z,5.92
2022-12-20T17:29:01.679Z,5.97
2022-12-20T17:31:39.715Z,6.01
2022-12-20T17:34:11.304Z,6.08
2022-12-20T17:36:43.154Z,6.10
2022-12-20T17:39:14.664Z,6.14
2022-12-20T17:41:46.532Z,6.18
2022-12-20T17:44:18.160Z,6.23
2022-12-20T17:46:49.979Z,6.29
2022-12-20T17:49:23.090Z,6.31
2022-12-20T17:51:56.398Z,6.30
2022-12-20T17:54:32.015Z,6.30
2022-12-20T17:57:08.603Z,6.27
2022-12-20T17:59:40.197Z,6.26
2022-12-20T18:02:12.124Z,6.28
2022-12-20T18:04:44.800Z,6.25
2022-12-20T18:07:16.679Z,6.31
2022-12-20T18:09:48.265Z,6.25
2022-12-20T18:12:20.249Z,6.27
2022-12-20T18:14:51.804Z,6.26
2022-12-20T18:17:23.625Z,6.27
2022-12-20T18:19:55.772Z,6.34
2022-12-20T18:22:27.657Z,6.28
2022-12-20T18:24:59.270Z,6.30
2022-12-20T18:27:31.453Z,6.23
2022-12-20T18:30:03.503Z,6.25
2022-12-20T18:32:35.401Z,6.19
2022-12-20T18:35:06.951Z,6.24
2022-12-20T18:37:38.879Z,6.15
2022-12-20T18:40:10.442Z,6.15
2022-12-20T18:42:42.007Z,6.19
2022-12-20T18:45:13.533Z,6.18
2022-12-20T18:47:45.382Z,6.15
2022-12-20T18:50:16.943Z,6.18
2022-12-20T18:52:48.806Z,6.14
2022-12-20T18:55:20.347Z,6.11
2022-12-20T18:57:51.874Z,6.10
2022-12-20T19:00:23.404Z,6.07
2022-12-20T19:02:59.669Z,6.11
2022-12-20T19:05:31.297Z,6.06
2022-12-20T19:08:03.218Z,6.04
2022-12-20T19:10:34.813Z,6.00
2022-12-20T19:13:06.387Z,6.01
2022-12-20T19:15:38.064Z,5.99
2022-12-20T19:18:09.755Z,5.97
2022-12-20T19:20:41.357Z,6.04
2022-12-20T19:23:12.954Z,5.99
2022-12-20T19:25:44.474Z,5.99
2022-12-20T19:28:16.270Z,5.94
2022-12-20T19:30:47.983Z,5.88
2022-12-20T19:33:19.948Z,5.81
2022-12-20T19:35:56.112Z,5.68
2022-12-20T19:38:28.405Z,5.67
2022-12-20T19:41:00.046Z,5.65
2022-12-20T19:43:31.750Z,5.70
2022-12-20T19:46:03.386Z,5.73
2022-12-20T19:48:35.474Z,5.70
2022-12-20T19:51:09.077Z,5.67
2022-12-20T19:53:40.681Z,5.70
2022-12-20T19:56:12.241Z,5.67
2022-12-20T19:58:44.121Z,5.72
2022-12-20T20:01:15.710Z,5.70
2022-12-20T20:03:47.420Z,5.67
2022-12-20T20:06:19.015Z,5.59
2022-12-20T20:08:50.902Z,5.62
2022-12-20T20:11:22.492Z,5.59
2022-12-20T20:13:54.102Z,5.59
2022-12-20T20:16:26.376Z,5.57
2022-12-20T20:18:58.396Z,5.59
2022-12-20T20:21:30.016Z,5.55
2022-12-20T20:24:01.834Z,5.54
2022-12-20T20:26:33.349Z,5.51
2022-12-20T20:29:06.497Z,5.51
2022-12-20T20:31:38.134Z,5.47
2022-12-20T20:34:10.301Z,5.49
2022-12-20T20:36:41.830Z,5.48
2022-12-20T20:39:13.708Z,5.50
2022-12-20T20:41:45.296Z,5.47
2022-12-20T20:44:17.207Z,5.48
2022-12-20T20:46:48.732Z,5.42
2022-12-20T20:49:20.369Z,5.39
2022-12-20T20:51:51.860Z,5.25
2022-12-20T20:54:23.425Z,5.22
2022-12-20T20:56:54.944Z,5.21
2022-12-20T20:59:26.832Z,5.19
2022-12-20T21:01:59.111Z,5.16
2022-12-20T21:04:30.734Z,5.15
2022-12-20T21:07:02.308Z,5.15
2022-12-20T21:09:33.890Z,5.13
2022-12-20T21:12:05.927Z,5.14
2022-12-20T21:15:19.933Z,5.19
2022-12-20T21:17:29.635Z,5.11
2022-12-20T21:20:01.176Z,5.11
2022-12-20T21:22:33.029Z,5.15
2022-12-20T21:25:04.594Z,5.12
2022-12-20T21:27:36.477Z,5.12
2022-12-20T21:30:07.990Z,5.16
2022-12-20T21:32:39.942Z,5.19
2022-12-20T21:35:11.537Z,5.16
2022-12-20T21:37:43.351Z,5.15
2022-12-20T21:40:14.891Z,5.18
2022-12-20T21:42:46.768Z,5.16
2022-12-20T21:45:18.951Z,5.17
2022-12-20T21:47:50.949Z,5.21
2022-12-20T21:50:22.461Z,5.17
2022-12-20T21:52:54.302Z,5.19
2022-12-20T21:55:25.836Z,5.13
2022-12-20T21:57:57.737Z,5.19
2022-12-20T22:00:29.341Z,5.18
2022-12-20T22:03:02.104Z,5.21
2022-12-20T22:05:33.801Z,5.22
2022-12-20T22:08:05.795Z,5.20
2022-12-20T22:10:37.333Z,5.22
2022-12-20T22:13:09.247Z,5.22
2022-12-20T22:15:40.879Z,5.21
2022-12-20T22:18:12.806Z,5.23
2022-12-20T22:20:44.350Z,5.26
2022-12-20T22:23:16.324Z,5.24
2022-12-20T22:25:47.859Z,5.29
2022-12-20T22:28:19.417Z,5.28
2022-12-20T22:30:52.304Z,5.31
2022-12-20T22:33:24.220Z,5.30
2022-12-20T22:35:55.743Z,5.32
2022-12-20T22:38:27.598Z,5.33
2022-12-20T22:40:59.305Z,5.35
2022-12-20T22:43:31.296Z,5.28
2022-12-20T22:46:02.870Z,5.30
2022-12-20T22:48:34.771Z,5.29
2022-12-20T22:51:06.395Z,5.29
2022-12-20T22:53:38.086Z,5.28
2022-12-20T22:56:09.646Z,5.19
2022-12-20T22:58:41.731Z,5.12
2022-12-20T23:01:13.360Z,5.11
2022-12-20T23:03:45.459Z,5.15
2022-12-20T23:06:17.091Z,5.15
2022-12-20T23:08:49.172Z,5.14
2022-12-20T23:11:39.715Z,5.16
2022-12-20T23:14:30.236Z,5.19
2022-12-20T23:17:01.879Z,5.14
2022-12-20T23:19:53.784Z,5.15
2022-12-20T23:22:41.081Z,5.15
2022-12-20T23:25:12.636Z,5.07
2022-12-20T23:27:44.490Z,5.06
2022-12-20T23:30:16.020Z,5.01
2022-12-20T23:32:47.962Z,5.00
2022-12-20T23:35:19.505Z,5.01
2022-12-20T23:37:51.313Z,4.99
2022-12-20T23:40:22.932Z,4.93
2022-12-20T23:42:55.063Z,4.91
2022-12-20T23:45:26.582Z,4.90
2022-12-20T23:47:58.484Z,4.81
2022-12-20T23:50:29.999Z,4.80
2022-12-20T23:53:01.985Z,4.75
2022-12-20T23:55:33.512Z,4.76
2022-12-20T23:58:05.266Z,4.76
